Chicken, Alaska
Current Conditions -  °F | °C
As of 3:53 AM on Tuesday 21 Oct 2014 (Local Time) from PAEG Reporting Station
Overcast Overcast  
Wind Chill: 28°   Ceiling: 5500
Heat Index: 28°   Visibility: 10mi
Dew Point: 25°   Wind: 0mph
Humidity: 88%   Direction: NA
Pressure: 29.36"   Gusts: NA
Location:  64.07°N, 141.94°W
Report Text: PAEG 211153Z AUTO 00000KT 10SM OVC055 M02/M04 A2936 RMK AO2 SNE01 SLP951 P0000 60000 T10221039 11011 21022 53012 TSNO
Loading
Personal Weather Stations






























Interactive Weather Map
Tropical Storm Tracking
New forecast layout! Learn more

10-Day Weather Forecast

Advertisements
Track Severe Weather on mobile